createdAt,value
2023-01-09T00:01:35.264Z,2.17
2023-01-09T00:04:03.785Z,1.77
2023-01-09T00:06:32.933Z,1.50
2023-01-09T00:09:01.132Z,2.40
2023-01-09T00:11:29.302Z,2.90
2023-01-09T00:13:57.082Z,2.30
2023-01-09T00:16:25.102Z,2.17
2023-01-09T00:18:53.668Z,3.65
2023-01-09T00:21:21.969Z,2.20
2023-01-09T00:23:50.060Z,2.60
2023-01-09T00:26:21.222Z,2.40
2023-01-09T00:28:51.618Z,2.67
2023-01-09T00:31:19.646Z,2.15
2023-01-09T00:34:01.057Z,2.28
2023-01-09T00:36:29.676Z,2.40
2023-01-09T00:38:57.786Z,2.38
2023-01-09T00:41:39.650Z,2.17
2023-01-09T00:44:15.197Z,1.85
2023-01-09T00:46:49.313Z,2.13
2023-01-09T00:49:18.958Z,2.55
2023-01-09T00:51:47.183Z,3.00
2023-01-09T00:54:17.839Z,3.25
2023-01-09T00:56:46.430Z,2.97
2023-01-09T00:59:14.300Z,2.53
2023-01-09T01:01:42.547Z,2.65
2023-01-09T01:04:28.993Z,3.10
2023-01-09T01:07:15.340Z,2.47
2023-01-09T01:09:43.135Z,2.13
2023-01-09T01:12:11.081Z,3.45
2023-01-09T01:14:39.067Z,2.80
2023-01-09T01:17:08.319Z,2.67
2023-01-09T01:19:36.398Z,2.90
2023-01-09T01:22:05.302Z,2.95
2023-01-09T01:24:33.660Z,3.72
2023-01-09T01:27:01.506Z,3.00
2023-01-09T01:29:29.353Z,2.80
2023-01-09T01:31:57.079Z,3.63
2023-01-09T01:34:25.393Z,3.40
2023-01-09T01:36:53.055Z,3.28
2023-01-09T01:39:20.968Z,2.97
2023-01-09T01:41:49.807Z,3.97
2023-01-09T01:44:55.090Z,3.33
2023-01-09T01:47:28.741Z,2.30
2023-01-09T01:49:57.036Z,2.88
2023-01-09T01:52:25.849Z,3.65
2023-01-09T01:54:54.837Z,2.38
2023-01-09T01:57:22.632Z,2.47
2023-01-09T01:59:55.690Z,2.72
2023-01-09T02:02:28.589Z,2.42
2023-01-09T02:04:59.222Z,2.70
2023-01-09T02:07:26.980Z,2.13
2023-01-09T02:09:55.583Z,2.83
2023-01-09T02:12:26.317Z,2.60
2023-01-09T02:15:08.701Z,2.35
2023-01-09T02:17:48.791Z,1.90
2023-01-09T02:20:30.398Z,2.58
2023-01-09T02:23:24.302Z,2.33
2023-01-09T02:26:16.959Z,2.05
2023-01-09T02:29:16.645Z,1.38
2023-01-09T02:31:56.953Z,2.38
2023-01-09T02:34:32.934Z,1.60
2023-01-09T02:37:18.151Z,4.28
2023-01-09T02:40:25.220Z,1.75
2023-01-09T02:42:54.894Z,2.03
2023-01-09T02:45:22.862Z,2.05
2023-01-09T02:47:50.851Z,1.90
2023-01-09T02:50:36.933Z,1.35
2023-01-09T02:53:26.621Z,2.58
2023-01-09T02:56:12.728Z,1.80
2023-01-09T02:58:52.669Z,1.48
2023-01-09T03:01:46.701Z,1.30
2023-01-09T03:04:23.715Z,1.65
2023-01-09T03:07:30.922Z,1.70
2023-01-09T03:10:23.512Z,2.50
2023-01-09T03:12:55.540Z,1.73
2023-01-09T03:15:28.502Z,1.67
2023-01-09T03:17:58.173Z,2.70
2023-01-09T03:20:29.881Z,1.20
2023-01-09T03:23:00.476Z,1.10
2023-01-09T03:25:30.460Z,1.55
2023-01-09T03:28:01.716Z,1.25
2023-01-09T03:30:32.226Z,1.38
2023-01-09T03:33:00.402Z,1.67
2023-01-09T03:35:28.812Z,1.23
2023-01-09T03:37:56.899Z,1.23
2023-01-09T03:40:24.825Z,1.40
2023-01-09T03:42:52.535Z,1.98
2023-01-09T03:45:20.396Z,1.48
2023-01-09T03:47:48.379Z,1.20
2023-01-09T03:50:16.223Z,1.30
2023-01-09T03:52:44.003Z,1.10
2023-01-09T03:55:13.727Z,1.90
2023-01-09T03:57:42.887Z,1.60
2023-01-09T04:00:11.518Z,1.48
2023-01-09T04:02:43.464Z,1.23
2023-01-09T04:05:11.417Z,1.45
2023-01-09T04:07:39.928Z,1.25
2023-01-09T04:10:08.474Z,1.25
2023-01-09T04:12:36.125Z,1.50
2023-01-09T04:15:04.276Z,1.05
2023-01-09T04:17:31.994Z,1.52
2023-01-09T04:19:59.840Z,1.20
2023-01-09T04:22:27.700Z,1.95
2023-01-09T04:24:55.573Z,0.90
2023-01-09T04:27:23.511Z,1.23
2023-01-09T04:29:51.231Z,1.20
2023-01-09T04:32:18.883Z,1.13
2023-01-09T04:34:46.783Z,1.23
2023-01-09T04:37:14.902Z,1.55
2023-01-09T04:39:46.132Z,1.40
2023-01-09T04:42:13.954Z,1.52
2023-01-09T04:44:41.581Z,1.40
2023-01-09T04:47:09.711Z,1.10
2023-01-09T04:49:37.538Z,1.25
2023-01-09T04:52:05.993Z,1.13
2023-01-09T04:54:34.770Z,0.95
2023-01-09T04:57:02.539Z,1.42
2023-01-09T04:59:30.258Z,1.20
2023-01-09T05:01:59.765Z,1.73
2023-01-09T05:04:27.818Z,1.42
2023-01-09T05:06:55.556Z,1.08
2023-01-09T05:09:23.330Z,1.10
2023-01-09T05:11:51.356Z,1.02
2023-01-09T05:14:19.389Z,1.13
2023-01-09T05:16:47.394Z,1.73
2023-01-09T05:19:15.243Z,1.00
2023-01-09T05:21:43.504Z,1.40
2023-01-09T05:24:11.445Z,2.33
2023-01-09T05:26:39.255Z,1.63
2023-01-09T05:29:07.075Z,2.13
2023-01-09T05:31:34.719Z,1.45
2023-01-09T05:34:02.525Z,2.45
2023-01-09T05:36:30.806Z,2.17
2023-01-09T05:38:58.809Z,2.88
2023-01-09T05:41:26.657Z,3.83
2023-01-09T05:43:54.544Z,4.88
2023-01-09T05:46:22.611Z,4.10
2023-01-09T05:48:50.402Z,3.63
2023-01-09T05:51:18.328Z,5.00
2023-01-09T05:53:46.120Z,3.40
2023-01-09T05:56:13.842Z,4.72
2023-01-09T05:58:41.901Z,3.50
2023-01-09T06:01:09.774Z,3.22
2023-01-09T06:03:37.550Z,3.45
2023-01-09T06:06:05.458Z,3.60
2023-01-09T06:08:33.365Z,4.18
2023-01-09T06:11:01.483Z,3.90
2023-01-09T06:13:29.440Z,3.25
2023-01-09T06:15:57.460Z,5.10
2023-01-09T06:18:25.272Z,3.33
2023-01-09T06:20:53.237Z,3.35
2023-01-09T06:23:20.988Z,4.40
2023-01-09T06:25:48.989Z,4.22
2023-01-09T06:28:16.912Z,3.58
2023-01-09T06:30:45.525Z,1.98
2023-01-09T06:33:13.321Z,2.65
2023-01-09T06:35:41.478Z,2.13
2023-01-09T06:38:09.443Z,9.45
2023-01-09T06:40:37.455Z,17.27
2023-01-09T06:43:05.517Z,13.93
2023-01-09T06:45:33.577Z,8.40
2023-01-09T06:48:01.568Z,4.45
2023-01-09T06:50:29.757Z,2.85
2023-01-09T06:52:57.511Z,1.05
2023-01-09T06:55:26.549Z,1.20
2023-01-09T06:57:54.474Z,1.63
2023-01-09T07:00:22.675Z,2.00
2023-01-09T07:02:50.556Z,1.40
2023-01-09T07:05:18.559Z,1.48
2023-01-09T07:07:47.619Z,0.95
2023-01-09T07:10:16.443Z,0.70
2023-01-09T07:12:45.517Z,0.47
2023-01-09T07:15:13.540Z,0.60
2023-01-09T07:17:42.073Z,1.10
2023-01-09T07:20:10.883Z,1.25
2023-01-09T07:22:38.759Z,2.17
2023-01-09T07:25:06.766Z,1.45
2023-01-09T07:27:34.860Z,1.23
2023-01-09T07:30:03.659Z,0.88
2023-01-09T07:32:32.304Z,1.35
2023-01-09T07:34:59.993Z,1.58
2023-01-09T07:37:27.767Z,2.42
2023-01-09T07:39:55.727Z,2.28
2023-01-09T07:42:23.581Z,1.52
2023-01-09T07:44:52.364Z,1.73
2023-01-09T07:47:20.350Z,0.88
2023-01-09T07:49:48.056Z,1.40
2023-01-09T07:52:16.061Z,1.73
2023-01-09T07:54:43.779Z,2.40
2023-01-09T07:57:11.660Z,5.65
2023-01-09T07:59:39.265Z,7.20
2023-01-09T08:02:07.442Z,6.20
2023-01-09T08:04:35.619Z,6.15
2023-01-09T08:07:03.703Z,3.70
2023-01-09T08:09:31.633Z,3.22
2023-01-09T08:12:01.287Z,2.60
2023-01-09T08:14:28.935Z,2.17
2023-01-09T08:16:56.771Z,3.63
2023-01-09T08:19:24.592Z,2.78
2023-01-09T08:21:52.321Z,2.33
2023-01-09T08:24:20.084Z,2.95
2023-01-09T08:26:47.931Z,2.63
2023-01-09T08:29:15.681Z,2.03
2023-01-09T08:31:45.103Z,3.00
2023-01-09T08:34:12.844Z,4.20
2023-01-09T08:36:40.639Z,6.35
2023-01-09T08:39:09.793Z,3.05
2023-01-09T08:41:56.099Z,2.10
2023-01-09T08:44:42.615Z,2.60
2023-01-09T08:47:10.524Z,3.97
2023-01-09T08:49:39.628Z,3.20
2023-01-09T08:52:08.307Z,3.00
2023-01-09T08:54:39.173Z,4.88
2023-01-09T08:57:07.942Z,3.63
2023-01-09T08:59:35.821Z,2.85
2023-01-09T09:02:03.573Z,3.75
2023-01-09T09:04:31.460Z,2.78
2023-01-09T09:06:59.177Z,3.22
2023-01-09T09:09:27.000Z,3.17
2023-01-09T09:11:54.806Z,5.25
2023-01-09T09:14:41.191Z,2.38
2023-01-09T09:17:08.943Z,4.95
2023-01-09T09:19:36.572Z,4.15
2023-01-09T09:22:04.235Z,4.82
2023-01-09T09:24:32.046Z,4.82
2023-01-09T09:26:59.784Z,4.28
2023-01-09T09:29:27.612Z,7.28
2023-01-09T09:31:55.519Z,9.77
2023-01-09T09:34:23.566Z,4.68
2023-01-09T09:36:51.603Z,6.63
2023-01-09T09:39:19.485Z,4.03
2023-01-09T09:42:21.876Z,5.97
2023-01-09T09:45:19.780Z,4.93
2023-01-09T09:47:59.756Z,4.90
2023-01-09T09:51:01.530Z,4.68
2023-01-09T09:53:36.210Z,3.53
2023-01-09T09:56:05.718Z,3.58
2023-01-09T09:58:38.229Z,4.13
2023-01-09T10:01:08.201Z,3.92
2023-01-09T10:03:52.999Z,4.65
2023-01-09T10:06:29.513Z,3.33
2023-01-09T10:09:17.759Z,4.43
2023-01-09T10:12:00.726Z,4.25
2023-01-09T10:14:29.402Z,4.97
2023-01-09T10:17:38.996Z,6.45
2023-01-09T10:20:25.147Z,5.25
2023-01-09T10:23:08.291Z,4.65
2023-01-09T10:25:40.856Z,4.20
2023-01-09T10:28:46.162Z,5.03
2023-01-09T10:31:50.685Z,6.20
2023-01-09T10:34:36.732Z,3.88
2023-01-09T10:37:18.953Z,4.15
2023-01-09T10:40:01.993Z,4.20
2023-01-09T10:42:39.231Z,5.43
2023-01-09T10:45:19.595Z,4.85
2023-01-09T10:47:48.585Z,7.43
2023-01-09T10:50:25.601Z,6.72
2023-01-09T10:52:57.024Z,5.03
2023-01-09T10:55:47.056Z,5.43
2023-01-09T10:58:18.830Z,3.97
2023-01-09T11:00:48.956Z,3.58
2023-01-09T11:03:22.543Z,5.18
2023-01-09T11:05:52.748Z,4.82
2023-01-09T11:08:35.926Z,3.03
2023-01-09T11:11:04.038Z,3.65
2023-01-09T11:13:34.241Z,4.78
2023-01-09T11:16:12.017Z,4.57
2023-01-09T11:19:00.000Z,4.00
2023-01-09T11:21:42.033Z,3.83
2023-01-09T11:24:18.974Z,2.63
2023-01-09T11:26:51.855Z,3.10
2023-01-09T11:29:24.785Z,3.65
2023-01-09T11:31:55.606Z,3.80
2023-01-09T11:34:26.347Z,2.40
2023-01-09T11:37:05.265Z,2.85
2023-01-09T11:39:35.639Z,11.02
2023-01-09T11:42:06.636Z,13.20
2023-01-09T11:44:36.130Z,14.10
2023-01-09T11:47:38.294Z,11.73
2023-01-09T11:50:26.652Z,10.77
2023-01-09T11:53:16.844Z,11.85
2023-01-09T11:55:46.916Z,7.88
2023-01-09T11:58:21.900Z,7.00
2023-01-09T12:01:02.699Z,5.38
2023-01-09T12:03:36.367Z,4.68
2023-01-09T12:06:18.708Z,4.72
2023-01-09T12:08:49.308Z,5.38
2023-01-09T12:11:30.714Z,5.00
2023-01-09T12:14:20.051Z,4.10
2023-01-09T12:16:59.270Z,3.88
2023-01-09T12:20:01.995Z,3.63
2023-01-09T12:22:35.804Z,4.20
2023-01-09T12:25:29.738Z,6.78
2023-01-09T12:28:12.744Z,4.70
2023-01-09T12:31:03.096Z,3.28
2023-01-09T12:33:41.496Z,4.55
2023-01-09T12:36:23.911Z,3.70
2023-01-09T12:39:04.099Z,5.47
2023-01-09T12:41:46.801Z,4.80
2023-01-09T12:44:42.910Z,3.08
2023-01-09T12:47:32.459Z,3.33
2023-01-09T12:50:24.020Z,6.30
2023-01-09T12:52:57.789Z,4.85
2023-01-09T12:55:32.533Z,6.55
2023-01-09T12:58:07.660Z,6.45
2023-01-09T13:00:43.419Z,7.38
2023-01-09T13:03:21.437Z,7.53
2023-01-09T13:05:53.617Z,6.47
2023-01-09T13:08:32.074Z,6.68
2023-01-09T13:11:20.011Z,5.85
2023-01-09T13:14:00.386Z,26.83
2023-01-09T13:16:37.226Z,28.33
2023-01-09T13:19:26.566Z,19.40
2023-01-09T13:21:56.717Z,12.10
2023-01-09T13:24:30.418Z,9.57
2023-01-09T13:27:11.093Z,7.82
2023-01-09T13:29:46.025Z,10.07
2023-01-09T13:32:32.653Z,6.50
2023-01-09T13:35:01.597Z,4.70
2023-01-09T13:37:37.195Z,4.00
2023-01-09T13:40:27.157Z,4.35
2023-01-09T13:43:10.775Z,7.57
2023-01-09T13:45:40.208Z,8.43
2023-01-09T13:48:20.248Z,5.88
2023-01-09T13:50:51.166Z,5.82
2023-01-09T13:53:19.043Z,5.63
2023-01-09T13:56:14.586Z,4.55
2023-01-09T13:58:54.668Z,4.75
2023-01-09T14:01:26.081Z,5.70
2023-01-09T14:04:14.675Z,7.07
2023-01-09T14:06:45.113Z,3.60
2023-01-09T14:09:21.203Z,5.85
2023-01-09T14:12:02.154Z,5.65
2023-01-09T14:14:33.459Z,3.22
2023-01-09T14:17:03.763Z,3.58
2023-01-09T14:19:40.026Z,3.53
2023-01-09T14:22:23.579Z,3.27
2023-01-09T14:24:53.073Z,3.65
2023-01-09T14:27:55.112Z,4.32
2023-01-09T14:30:25.977Z,2.83
2023-01-09T14:33:15.463Z,2.10
2023-01-09T14:35:53.461Z,2.38
2023-01-09T14:38:48.460Z,2.53
2023-01-09T14:41:41.954Z,3.08
2023-01-09T14:44:24.769Z,10.13
2023-01-09T14:46:53.770Z,3.80
2023-01-09T14:49:34.419Z,6.35
2023-01-09T14:52:13.428Z,4.18
2023-01-09T14:54:44.066Z,3.97
2023-01-09T14:57:32.504Z,6.00
2023-01-09T15:00:19.082Z,3.55
2023-01-09T15:02:48.193Z,5.47
2023-01-09T15:05:20.914Z,4.75
2023-01-09T15:08:02.210Z,5.93
2023-01-09T15:10:33.800Z,4.85
2023-01-09T15:13:05.667Z,4.60
2023-01-09T15:15:35.842Z,5.07
2023-01-09T15:18:07.888Z,12.18
2023-01-09T15:20:36.974Z,13.07
2023-01-09T15:23:05.564Z,17.80
2023-01-09T15:25:40.244Z,14.52
2023-01-09T15:28:31.108Z,7.72
2023-01-09T15:31:11.920Z,8.70
2023-01-09T15:33:41.658Z,6.78
2023-01-09T15:36:23.143Z,4.50
2023-01-09T15:38:52.683Z,5.82
2023-01-09T15:41:44.964Z,5.82
2023-01-09T15:44:26.575Z,6.22
2023-01-09T15:47:00.533Z,10.90
2023-01-09T15:49:29.250Z,4.45
2023-01-09T15:51:57.342Z,5.38
2023-01-09T15:54:33.294Z,3.78
2023-01-09T15:57:26.167Z,14.43
2023-01-09T15:59:55.591Z,5.78
2023-01-09T16:02:43.891Z,9.30
2023-01-09T16:05:16.879Z,6.72
2023-01-09T16:07:46.813Z,5.57
2023-01-09T16:10:36.229Z,5.22
2023-01-09T16:13:04.163Z,5.25
2023-01-09T16:15:35.074Z,5.28
2023-01-09T16:18:30.987Z,7.47
2023-01-09T16:21:23.117Z,4.07
2023-01-09T16:23:56.308Z,4.70
2023-01-09T16:26:26.536Z,5.53
2023-01-09T16:28:55.223Z,7.47
2023-01-09T16:31:30.065Z,5.53
2023-01-09T16:34:04.556Z,3.00
2023-01-09T16:36:35.379Z,5.18
2023-01-09T16:39:08.493Z,7.25
2023-01-09T16:41:54.729Z,5.88
2023-01-09T16:44:22.748Z,3.88
2023-01-09T16:46:50.637Z,3.53
2023-01-09T16:49:22.948Z,4.20
2023-01-09T16:51:51.929Z,4.22
2023-01-09T16:54:20.790Z,4.10
2023-01-09T16:56:51.225Z,9.13
2023-01-09T16:59:21.759Z,7.20
2023-01-09T17:01:49.855Z,4.55
2023-01-09T17:04:20.153Z,4.10
2023-01-09T17:06:49.436Z,3.20
2023-01-09T17:09:19.754Z,4.18
2023-01-09T17:11:47.683Z,4.40
2023-01-09T17:14:15.618Z,4.03
2023-01-09T17:16:46.224Z,6.10
2023-01-09T17:19:18.865Z,3.70
2023-01-09T17:21:47.406Z,4.28
2023-01-09T17:24:33.996Z,3.97
2023-01-09T17:27:22.354Z,4.82
2023-01-09T17:29:50.095Z,4.32
2023-01-09T17:32:18.697Z,5.07
2023-01-09T17:34:46.494Z,7.75
2023-01-09T17:37:19.768Z,4.38
2023-01-09T17:39:48.091Z,5.10
2023-01-09T17:42:16.144Z,7.80
2023-01-09T17:44:44.170Z,3.80
2023-01-09T17:47:15.666Z,5.85
2023-01-09T17:49:46.096Z,5.30
2023-01-09T17:52:14.012Z,3.10
2023-01-09T17:54:43.370Z,5.72
2023-01-09T17:57:16.511Z,5.10
2023-01-09T17:59:45.225Z,1.80
2023-01-09T18:02:18.367Z,5.20
2023-01-09T18:04:46.448Z,3.97
2023-01-09T18:07:16.043Z,2.75
2023-01-09T18:09:45.490Z,3.83
2023-01-09T18:12:13.879Z,2.78
2023-01-09T18:14:42.366Z,7.25
2023-01-09T18:17:14.137Z,15.32
2023-01-09T18:19:42.352Z,15.65
2023-01-09T18:22:10.296Z,16.23
2023-01-09T18:24:38.525Z,9.70
2023-01-09T18:27:06.357Z,14.77
2023-01-09T18:29:34.219Z,12.48
2023-01-09T18:32:02.077Z,14.88
2023-01-09T18:34:30.179Z,14.30
2023-01-09T18:36:58.091Z,11.13
2023-01-09T18:39:26.279Z,11.63
2023-01-09T18:41:54.082Z,7.43
2023-01-09T18:44:22.529Z,8.85
2023-01-09T18:46:50.496Z,7.45
2023-01-09T18:49:18.293Z,6.45
2023-01-09T18:51:46.492Z,4.93
2023-01-09T18:54:15.538Z,5.30
2023-01-09T18:56:43.186Z,6.07
2023-01-09T18:59:11.377Z,11.70
2023-01-09T19:01:39.164Z,9.07
2023-01-09T19:04:06.954Z,9.52
2023-01-09T19:06:34.888Z,8.23
2023-01-09T19:09:02.594Z,7.53
2023-01-09T19:11:30.409Z,4.30
2023-01-09T19:13:58.370Z,7.47
2023-01-09T19:16:26.349Z,4.78
2023-01-09T19:18:54.011Z,5.43
2023-01-09T19:21:27.028Z,4.85
2023-01-09T19:23:56.283Z,6.88
2023-01-09T19:26:26.547Z,6.57
2023-01-09T19:28:57.635Z,4.93
2023-01-09T19:31:28.754Z,5.75
2023-01-09T19:33:57.569Z,6.55
2023-01-09T19:36:26.101Z,5.72
2023-01-09T19:39:02.241Z,7.85
2023-01-09T19:41:30.609Z,8.52
2023-01-09T19:44:02.169Z,6.95
2023-01-09T19:46:30.825Z,4.60
2023-01-09T19:48:59.093Z,6.35
2023-01-09T19:51:27.598Z,14.38
2023-01-09T19:54:03.394Z,16.65
2023-01-09T19:56:35.702Z,10.07
2023-01-09T19:59:05.003Z,10.18
2023-01-09T20:01:36.283Z,9.40
2023-01-09T20:04:10.169Z,9.60
2023-01-09T20:06:41.677Z,11.13
2023-01-09T20:09:12.367Z,9.55
2023-01-09T20:11:41.469Z,7.03
2023-01-09T20:14:17.210Z,91.85
2023-01-09T20:16:48.774Z,75.03
2023-01-09T20:19:16.813Z,49.47
2023-01-09T20:21:44.556Z,35.67
2023-01-09T20:24:19.291Z,22.75
2023-01-09T20:26:47.161Z,15.90
2023-01-09T20:29:15.077Z,15.35
2023-01-09T20:31:44.253Z,10.27
2023-01-09T20:34:14.945Z,8.07
2023-01-09T20:36:43.334Z,6.82
2023-01-09T20:39:12.642Z,5.78
2023-01-09T20:41:40.395Z,6.80
2023-01-09T20:44:12.202Z,6.55
2023-01-09T20:46:42.845Z,7.07
2023-01-09T20:49:13.234Z,4.88
2023-01-09T20:51:45.299Z,7.85
2023-01-09T20:54:14.305Z,8.52
2023-01-09T20:56:43.186Z,11.48
2023-01-09T20:59:13.882Z,10.40
2023-01-09T21:01:41.788Z,9.27
2023-01-09T21:04:10.157Z,10.05
2023-01-09T21:06:38.637Z,8.30
2023-01-09T21:09:06.783Z,8.85
2023-01-09T21:11:34.530Z,7.32
2023-01-09T21:14:02.247Z,6.43
2023-01-09T21:16:30.415Z,5.65
2023-01-09T21:18:58.477Z,6.35
2023-01-09T21:21:30.061Z,4.60
2023-01-09T21:24:00.697Z,7.28
2023-01-09T21:26:30.905Z,5.53
2023-01-09T21:29:00.659Z,4.57
2023-01-09T21:31:35.472Z,4.05
2023-01-09T21:34:06.417Z,6.25
2023-01-09T21:36:35.775Z,5.40
2023-01-09T21:39:08.068Z,8.93
2023-01-09T21:41:56.528Z,7.38
2023-01-09T21:44:50.360Z,7.57
2023-01-09T21:47:18.208Z,8.48
2023-01-09T21:49:46.329Z,5.90
2023-01-09T21:52:15.237Z,6.18
2023-01-09T21:54:47.621Z,5.70
2023-01-09T21:57:15.921Z,5.65
2023-01-09T21:59:43.673Z,5.20
2023-01-09T22:02:16.194Z,4.68
2023-01-09T22:04:48.923Z,5.18
2023-01-09T22:07:16.966Z,3.38
2023-01-09T22:09:45.837Z,5.03
2023-01-09T22:12:13.749Z,3.75
2023-01-09T22:14:42.439Z,4.03
2023-01-09T22:17:10.436Z,3.70
2023-01-09T22:19:38.743Z,4.43
2023-01-09T22:22:08.649Z,6.50
2023-01-09T22:24:36.673Z,10.25
2023-01-09T22:27:04.861Z,10.25
2023-01-09T22:29:34.299Z,9.35
2023-01-09T22:32:04.421Z,7.38
2023-01-09T22:34:33.365Z,5.88
2023-01-09T22:37:01.342Z,5.82
2023-01-09T22:39:29.187Z,3.50
2023-01-09T22:41:57.066Z,4.20
2023-01-09T22:44:24.803Z,4.03
2023-01-09T22:46:52.579Z,4.00
2023-01-09T22:49:20.315Z,3.08
2023-01-09T22:51:49.997Z,4.13
2023-01-09T22:54:19.621Z,4.38
2023-01-09T22:56:50.003Z,3.92
2023-01-09T22:59:18.063Z,3.80
2023-01-09T23:01:46.137Z,4.85
2023-01-09T23:04:13.807Z,3.63
2023-01-09T23:06:41.566Z,3.95
2023-01-09T23:09:09.397Z,4.10
2023-01-09T23:11:55.546Z,3.95
2023-01-09T23:14:41.956Z,4.60
2023-01-09T23:17:28.080Z,5.30
2023-01-09T23:20:14.595Z,4.15
2023-01-09T23:23:00.936Z,3.88
2023-01-09T23:25:51.993Z,3.92
2023-01-09T23:28:38.029Z,4.70
2023-01-09T23:31:24.601Z,3.67
2023-01-09T23:34:15.096Z,3.65
2023-01-09T23:37:01.407Z,4.30
2023-01-09T23:39:47.927Z,3.72
2023-01-09T23:42:52.799Z,3.42
2023-01-09T23:45:44.432Z,4.22
2023-01-09T23:48:30.679Z,4.28
2023-01-09T23:51:16.946Z,3.95
2023-01-09T23:54:04.316Z,5.10
2023-01-09T23:56:50.448Z,5.87
2023-01-09T23:59:18.260Z,4.82
